createdAt,value
2022-09-06T00:01:24.712Z,10.53
2022-09-06T00:04:28.120Z,8.85
2022-09-06T00:07:31.586Z,7.63
2022-09-06T00:10:34.912Z,7.43
2022-09-06T00:13:38.380Z,6.57
2022-09-06T00:16:41.673Z,8.43
2022-09-06T00:19:44.827Z,10.27
2022-09-06T00:22:47.996Z,10.23
2022-09-06T00:25:51.230Z,6.53
2022-09-06T00:28:54.392Z,9.93
2022-09-06T00:31:57.713Z,8.43
2022-09-06T00:35:00.939Z,9.90
2022-09-06T00:38:04.183Z,7.18
2022-09-06T00:41:13.646Z,9.10
2022-09-06T00:44:16.845Z,7.77
2022-09-06T00:47:20.427Z,10.17
2022-09-06T00:50:23.824Z,10.15
2022-09-06T00:53:27.283Z,7.75
2022-09-06T00:56:32.114Z,8.27
2022-09-06T00:59:38.531Z,7.77
2022-09-06T01:02:42.073Z,9.27
2022-09-06T01:06:17.190Z,7.68
2022-09-06T01:09:38.165Z,8.80
2022-09-06T01:13:28.903Z,9.70
2022-09-06T01:16:49.412Z,8.57
2022-09-06T01:19:56.294Z,9.17
2022-09-06T01:23:28.421Z,10.70
2022-09-06T01:27:04.309Z,7.18
2022-09-06T01:30:09.160Z,8.55
2022-09-06T01:33:24.482Z,7.57
2022-09-06T01:36:34.034Z,10.80
2022-09-06T01:39:41.661Z,8.95
2022-09-06T01:42:49.901Z,9.90
2022-09-06T01:46:19.308Z,10.60
2022-09-06T01:49:27.376Z,8.60
2022-09-06T01:52:41.655Z,8.33
2022-09-06T01:56:17.230Z,8.35
2022-09-06T01:59:34.238Z,9.55
2022-09-06T02:03:08.114Z,10.60
2022-09-06T02:06:18.580Z,9.17
2022-09-06T02:09:25.814Z,8.43
2022-09-06T02:12:32.375Z,9.82
2022-09-06T02:15:39.919Z,9.45
2022-09-06T02:19:09.695Z,10.38
2022-09-06T02:22:16.637Z,9.17
2022-09-06T02:25:29.501Z,10.63
2022-09-06T02:28:32.970Z,9.82
2022-09-06T02:31:42.668Z,9.75
2022-09-06T02:34:46.543Z,9.40
2022-09-06T02:37:50.323Z,7.97
2022-09-06T02:40:55.664Z,9.77
2022-09-06T02:43:59.164Z,8.27
2022-09-06T02:47:03.436Z,12.80
2022-09-06T02:50:08.254Z,10.93
2022-09-06T02:53:14.903Z,9.57
2022-09-06T02:56:18.182Z,11.03
2022-09-06T02:59:21.393Z,11.13
2022-09-06T03:02:24.618Z,17.67
2022-09-06T03:05:28.391Z,9.30
2022-09-06T03:08:34.160Z,11.70
2022-09-06T03:11:38.114Z,12.50
2022-09-06T03:14:41.526Z,11.25
2022-09-06T03:17:44.939Z,11.60
2022-09-06T03:20:50.684Z,12.52
2022-09-06T03:23:54.761Z,11.40
2022-09-06T03:26:58.176Z,13.23
2022-09-06T03:30:01.516Z,11.32
2022-09-06T03:33:04.862Z,13.93
2022-09-06T03:36:08.304Z,12.18
2022-09-06T03:39:11.615Z,10.37
2022-09-06T03:42:14.797Z,9.70
2022-09-06T03:45:18.097Z,12.32
2022-09-06T03:48:23.352Z,12.05
2022-09-06T03:51:26.851Z,17.65
2022-09-06T03:54:30.072Z,16.43
2022-09-06T03:57:33.266Z,14.40
2022-09-06T04:00:36.919Z,14.90
2022-09-06T04:03:40.524Z,13.50
2022-09-06T04:06:43.751Z,14.85
2022-09-06T04:09:49.645Z,13.37
2022-09-06T04:12:52.880Z,11.37
2022-09-06T04:15:56.492Z,15.52
2022-09-06T04:19:00.880Z,16.67
2022-09-06T04:22:04.253Z,13.55
2022-09-06T04:25:08.057Z,12.67
2022-09-06T04:28:11.250Z,13.03
2022-09-06T04:31:14.531Z,15.95
2022-09-06T04:34:17.871Z,15.68
2022-09-06T04:37:21.052Z,11.82
2022-09-06T04:40:24.342Z,14.33
2022-09-06T04:43:27.622Z,12.63
2022-09-06T04:46:33.269Z,14.05
2022-09-06T04:49:36.660Z,16.60
2022-09-06T04:52:41.521Z,16.70
2022-09-06T04:55:44.716Z,13.13
2022-09-06T04:58:49.398Z,18.87
2022-09-06T05:01:52.632Z,12.65
2022-09-06T05:04:57.116Z,17.00
2022-09-06T05:08:00.288Z,13.70
2022-09-06T05:11:03.684Z,15.17
2022-09-06T05:14:06.969Z,14.33
2022-09-06T05:17:10.176Z,15.13
2022-09-06T05:20:13.920Z,14.75
2022-09-06T05:23:17.068Z,14.52
2022-09-06T05:26:20.294Z,12.73
2022-09-06T05:29:26.482Z,15.83
2022-09-06T05:32:32.119Z,12.63
2022-09-06T05:35:35.370Z,12.68
2022-09-06T05:38:38.771Z,16.30
2022-09-06T05:41:42.001Z,12.57
2022-09-06T05:44:45.314Z,12.90
2022-09-06T05:47:48.888Z,13.10
2022-09-06T05:51:12.515Z,13.23
2022-09-06T05:54:15.717Z,14.10
2022-09-06T05:57:19.011Z,14.20
2022-09-06T06:00:22.333Z,16.73
2022-09-06T06:03:25.569Z,13.13
2022-09-06T06:06:33.926Z,12.80
2022-09-06T06:09:37.398Z,12.45
2022-09-06T06:12:40.668Z,12.77
2022-09-06T06:15:43.928Z,12.73
2022-09-06T06:18:51.977Z,14.75
2022-09-06T06:21:58.307Z,13.25
2022-09-06T06:25:01.514Z,13.30
2022-09-06T06:28:04.837Z,11.03
2022-09-06T06:31:09.982Z,11.13
2022-09-06T06:34:16.422Z,11.23
2022-09-06T06:37:19.680Z,14.50
2022-09-06T06:40:22.930Z,12.10
2022-09-06T06:43:26.768Z,10.20
2022-09-06T06:46:35.240Z,10.63
2022-09-06T06:49:38.485Z,15.32
2022-09-06T06:52:44.496Z,13.90
2022-09-06T06:55:48.555Z,9.23
2022-09-06T06:58:54.374Z,11.73
2022-09-06T07:01:57.692Z,12.17
2022-09-06T07:05:01.046Z,9.98
2022-09-06T07:08:05.076Z,12.25
2022-09-06T07:11:11.101Z,11.18
2022-09-06T07:14:14.911Z,14.20
2022-09-06T07:17:18.057Z,10.67
2022-09-06T07:20:21.443Z,9.98
2022-09-06T07:30:14.281Z,10.57
2022-09-06T07:33:17.769Z,8.43
2022-09-06T07:36:20.959Z,8.82
2022-09-06T07:39:24.473Z,13.75
2022-09-06T07:42:27.743Z,11.77
2022-09-06T07:45:31.370Z,11.33
2022-09-06T07:48:38.103Z,10.87
2022-09-06T07:51:41.497Z,10.90
2022-09-06T07:54:44.765Z,10.70
2022-09-06T07:57:50.880Z,10.00
2022-09-06T08:00:54.427Z,17.83
2022-09-06T08:03:59.781Z,12.13
2022-09-06T08:10:27.187Z,11.82
2022-09-06T08:13:30.453Z,8.88
2022-09-06T08:16:35.461Z,7.93
2022-09-06T08:19:42.555Z,10.43
2022-09-06T08:22:45.700Z,7.25
2022-09-06T08:26:01.120Z,9.93
2022-09-06T08:29:07.620Z,6.38
2022-09-06T08:32:11.139Z,7.80
2022-09-06T08:35:14.408Z,9.63
2022-09-06T08:38:17.636Z,7.82
2022-09-06T08:41:48.168Z,7.85
2022-09-06T08:47:58.547Z,9.80
2022-09-06T08:51:20.533Z,10.20
2022-09-06T08:54:45.793Z,8.90
2022-09-06T08:58:13.307Z,6.38
2022-09-06T09:01:25.335Z,8.40
2022-09-06T09:04:30.531Z,8.93
2022-09-06T09:07:54.802Z,9.47
2022-09-06T09:11:33.536Z,11.57
2022-09-06T09:14:39.414Z,9.57
2022-09-06T09:17:43.296Z,11.73
2022-09-06T09:20:46.577Z,6.70
2022-09-06T09:23:56.536Z,13.67
2022-09-06T09:27:11.340Z,6.35
2022-09-06T09:33:39.263Z,7.38
2022-09-06T09:40:07.155Z,4.33
2022-09-06T09:43:20.752Z,8.18
2022-09-06T09:46:23.959Z,5.35
2022-09-06T09:49:32.567Z,7.60
2022-09-06T09:52:44.417Z,6.90
2022-09-06T09:55:48.584Z,8.33
2022-09-06T09:59:02.856Z,6.32
2022-09-06T10:02:28.066Z,10.13
2022-09-06T10:05:31.358Z,6.35
2022-09-06T10:08:39.977Z,7.40
2022-09-06T10:11:58.967Z,8.83
2022-09-06T10:15:06.857Z,5.95
2022-09-06T10:18:41.317Z,9.18
2022-09-06T10:21:44.563Z,6.40
2022-09-06T10:25:04.557Z,8.00
2022-09-06T10:28:26.298Z,6.43
2022-09-06T10:31:39.119Z,7.13
2022-09-06T10:35:00.542Z,6.28
2022-09-06T10:38:41.024Z,6.25
2022-09-06T10:41:50.243Z,6.20
2022-09-06T10:45:11.895Z,9.30
2022-09-06T10:48:17.816Z,5.85
2022-09-06T10:51:36.351Z,9.07
2022-09-06T10:54:42.149Z,6.53
2022-09-06T10:58:20.622Z,10.07
2022-09-06T11:01:28.841Z,9.20
2022-09-06T11:11:44.215Z,6.95
2022-09-06T11:14:47.697Z,10.90
2022-09-06T11:18:06.529Z,7.20
2022-09-06T11:21:19.576Z,7.45
2022-09-06T11:24:34.992Z,5.70
2022-09-06T11:27:44.804Z,8.15
2022-09-06T11:30:56.970Z,6.23
2022-09-06T11:34:08.735Z,7.80
2022-09-06T11:37:28.094Z,5.88
2022-09-06T11:40:43.560Z,7.60
2022-09-06T11:43:52.195Z,5.13
2022-09-06T11:46:55.620Z,4.77
2022-09-06T11:49:58.864Z,7.27
2022-09-06T11:53:14.764Z,6.68
2022-09-06T11:56:31.521Z,7.30
2022-09-06T11:59:52.475Z,5.35
2022-09-06T12:06:35.482Z,7.53
2022-09-06T12:09:42.661Z,7.63
2022-09-06T12:12:52.566Z,5.00
2022-09-06T12:15:57.074Z,6.15
2022-09-06T12:19:01.825Z,5.73
2022-09-06T12:22:29.362Z,5.40
2022-09-06T12:25:35.809Z,4.75
2022-09-06T12:28:51.534Z,6.45
2022-09-06T12:32:01.618Z,6.60
2022-09-06T12:38:38.008Z,5.10
2022-09-06T12:41:48.314Z,5.20
2022-09-06T12:44:54.541Z,6.15
2022-09-06T12:48:06.980Z,7.05
2022-09-06T12:51:20.104Z,5.20
2022-09-06T12:54:26.335Z,5.00
2022-09-06T12:57:29.688Z,5.40
2022-09-06T13:00:37.244Z,8.40
2022-09-06T13:04:07.101Z,5.75
2022-09-06T13:07:17.043Z,6.00
2022-09-06T13:10:32.104Z,5.57
2022-09-06T13:13:35.372Z,5.28
2022-09-06T13:16:45.052Z,5.35
2022-09-06T13:19:50.163Z,5.75
2022-09-06T13:23:05.090Z,6.83
2022-09-06T13:26:08.525Z,6.43
2022-09-06T13:29:33.238Z,6.70
2022-09-06T13:32:45.459Z,7.38
2022-09-06T13:35:52.972Z,5.78
2022-09-06T13:38:56.407Z,4.97
2022-09-06T13:42:07.516Z,5.70
2022-09-06T13:45:28.150Z,5.70
2022-09-06T13:48:31.433Z,5.90
2022-09-06T13:51:35.472Z,5.28
2022-09-06T13:54:40.019Z,6.23
2022-09-06T13:57:43.643Z,7.23
2022-09-06T14:00:47.155Z,7.63
2022-09-06T14:03:50.675Z,4.93
2022-09-06T14:06:54.464Z,6.13
2022-09-06T14:09:57.721Z,4.33
2022-09-06T14:13:01.184Z,5.63
2022-09-06T14:16:05.455Z,4.68
2022-09-06T14:19:08.802Z,4.47
2022-09-06T14:22:12.329Z,7.63
2022-09-06T14:25:15.640Z,4.80
2022-09-06T14:28:19.060Z,5.33
2022-09-06T14:31:26.189Z,6.68
2022-09-06T14:34:29.857Z,5.82
2022-09-06T14:37:33.576Z,3.97
2022-09-06T14:40:38.635Z,4.70
2022-09-06T14:43:48.183Z,4.57
2022-09-06T14:46:53.545Z,7.10
2022-09-06T14:49:59.274Z,9.18
2022-09-06T14:53:03.087Z,7.18
2022-09-06T14:56:07.200Z,5.37
2022-09-06T14:59:11.156Z,4.83
2022-09-06T15:02:14.556Z,5.25
2022-09-06T15:05:17.826Z,5.65
2022-09-06T15:08:21.077Z,3.70
2022-09-06T15:11:31.255Z,4.47
2022-09-06T15:14:36.773Z,6.53
2022-09-06T15:17:40.125Z,8.13
2022-09-06T15:20:44.809Z,5.88
2022-09-06T15:23:48.095Z,4.70
2022-09-06T15:26:54.188Z,4.33
2022-09-06T15:29:57.536Z,4.40
2022-09-06T15:33:00.830Z,4.30
2022-09-06T15:36:08.033Z,4.78
2022-09-06T15:39:11.457Z,4.78
2022-09-06T15:42:14.716Z,4.90
2022-09-06T15:45:18.179Z,4.67
2022-09-06T15:48:21.866Z,7.10
2022-09-06T15:51:25.125Z,4.43
2022-09-06T15:54:47.807Z,4.45
2022-09-06T15:57:51.817Z,3.97
2022-09-06T16:01:15.602Z,4.13
2022-09-06T16:04:19.022Z,4.65
2022-09-06T16:07:22.236Z,4.63
2022-09-06T16:10:25.469Z,5.30
2022-09-06T16:13:36.123Z,5.40
2022-09-06T16:16:40.454Z,4.70
2022-09-06T16:19:45.625Z,4.53
2022-09-06T16:22:49.815Z,5.57
2022-09-06T16:25:54.036Z,4.95
2022-09-06T16:28:57.345Z,5.97
2022-09-06T16:32:00.690Z,5.43
2022-09-06T16:35:05.861Z,6.82
2022-09-06T16:38:09.801Z,7.85
2022-09-06T16:41:26.838Z,6.18
2022-09-06T16:44:31.133Z,5.03
2022-09-06T16:47:34.416Z,6.87
2022-09-06T16:50:38.312Z,6.47
2022-09-06T16:53:45.420Z,5.63
2022-09-06T16:56:48.829Z,7.68
2022-09-06T16:59:52.420Z,7.70
2022-09-06T17:02:56.702Z,7.23
2022-09-06T17:06:00.074Z,8.48
2022-09-06T17:09:04.012Z,6.63
2022-09-06T17:12:07.364Z,6.05
2022-09-06T17:15:11.004Z,6.87
2022-09-06T17:18:14.524Z,6.50
2022-09-06T17:21:17.867Z,7.97
2022-09-06T17:24:21.846Z,8.55
2022-09-06T17:27:25.401Z,6.55
2022-09-06T17:30:29.822Z,7.70
2022-09-06T17:33:34.459Z,6.47
2022-09-06T17:36:38.445Z,5.95
2022-09-06T17:39:41.979Z,11.13
2022-09-06T17:42:45.291Z,6.95
2022-09-06T17:45:48.556Z,6.87
2022-09-06T17:48:52.470Z,6.87
2022-09-06T17:51:55.659Z,8.38
2022-09-06T17:54:59.318Z,8.77
2022-09-06T17:58:03.089Z,9.80
2022-09-06T18:01:12.492Z,7.67
2022-09-06T18:04:19.732Z,9.70
2022-09-06T18:07:22.996Z,8.25
2022-09-06T18:10:26.257Z,8.57
2022-09-06T18:13:29.435Z,11.02
2022-09-06T18:16:34.070Z,8.10
2022-09-06T18:19:38.244Z,12.17
2022-09-06T18:22:41.485Z,11.02
2022-09-06T18:25:55.008Z,9.25
2022-09-06T18:28:58.320Z,8.57
2022-09-06T18:32:01.793Z,11.27
2022-09-06T18:35:05.942Z,7.03
2022-09-06T18:38:11.297Z,9.00
2022-09-06T18:41:34.861Z,8.45
2022-09-06T18:44:38.825Z,8.93
2022-09-06T18:47:44.602Z,8.50
2022-09-06T18:50:47.932Z,7.87
2022-09-06T18:53:52.869Z,7.88
2022-09-06T18:56:56.409Z,8.63
2022-09-06T18:59:59.666Z,7.18
2022-09-06T19:03:03.349Z,10.00
2022-09-06T19:06:17.703Z,8.87
2022-09-06T19:09:20.945Z,6.75
2022-09-06T19:12:24.491Z,7.10
2022-09-06T19:15:27.896Z,9.88
2022-09-06T19:18:31.612Z,9.97
2022-09-06T19:24:52.484Z,8.93
2022-09-06T19:27:55.712Z,8.38
2022-09-06T19:30:59.271Z,9.40
2022-09-06T19:34:04.032Z,8.17
2022-09-06T19:37:07.355Z,9.70
2022-09-06T19:40:11.105Z,8.63
2022-09-06T19:43:15.043Z,8.18
2022-09-06T19:46:18.694Z,8.90
2022-09-06T19:49:23.248Z,8.83
2022-09-06T19:52:26.938Z,7.83
2022-09-06T19:55:35.029Z,7.50
2022-09-06T19:58:41.213Z,9.45
2022-09-06T20:01:46.466Z,7.90
2022-09-06T20:04:49.841Z,8.80
2022-09-06T20:07:53.100Z,9.23
2022-09-06T20:10:59.007Z,11.55
2022-09-06T20:14:02.460Z,7.65
2022-09-06T20:17:29.578Z,9.57
2022-09-06T20:20:29.182Z,12.80
2022-09-06T20:23:37.157Z,9.30
2022-09-06T20:26:41.019Z,9.15
2022-09-06T20:29:44.323Z,7.35
2022-09-06T20:33:05.710Z,9.95
2022-09-06T20:36:11.149Z,8.70
2022-09-06T20:39:15.825Z,8.03
2022-09-06T20:42:19.131Z,9.20
2022-09-06T20:45:25.267Z,8.38
2022-09-06T20:48:30.431Z,11.40
2022-09-06T20:51:35.934Z,6.80
2022-09-06T20:54:40.119Z,8.50
2022-09-06T20:57:43.358Z,9.32
2022-09-06T21:00:46.650Z,8.48
2022-09-06T21:03:55.823Z,7.47
2022-09-06T21:06:59.123Z,7.23
2022-09-06T21:10:02.580Z,10.03
2022-09-06T21:13:05.921Z,9.27
2022-09-06T21:16:09.369Z,11.40
2022-09-06T21:19:12.707Z,10.23
2022-09-06T21:22:18.089Z,12.23
2022-09-06T21:25:21.227Z,13.87
2022-09-06T21:28:25.100Z,13.02
2022-09-06T21:31:33.451Z,11.10
2022-09-06T21:34:36.724Z,11.95
2022-09-06T21:37:39.957Z,12.17
2022-09-06T21:40:43.876Z,7.50
2022-09-06T21:43:50.968Z,9.93
2022-09-06T21:46:54.207Z,10.80
2022-09-06T21:49:57.360Z,7.70
2022-09-06T21:53:00.649Z,8.33
2022-09-06T21:56:05.178Z,7.93
2022-09-06T21:59:08.919Z,9.30
2022-09-06T22:02:12.629Z,8.10
2022-09-06T22:05:15.950Z,8.30
2022-09-06T22:08:19.767Z,7.87
2022-09-06T22:11:25.677Z,10.50
2022-09-06T22:14:29.348Z,10.10
2022-09-06T22:17:32.604Z,9.27
2022-09-06T22:20:36.692Z,7.68
2022-09-06T22:23:40.397Z,16.07
2022-09-06T22:26:44.060Z,9.67
2022-09-06T22:29:47.376Z,9.90
2022-09-06T22:32:50.556Z,9.98
2022-09-06T22:35:54.167Z,7.63
2022-09-06T22:38:57.839Z,9.90
2022-09-06T22:42:01.344Z,8.03
2022-09-06T22:45:05.023Z,8.45
2022-09-06T22:48:08.249Z,8.55
2022-09-06T22:51:11.764Z,9.82
2022-09-06T22:54:15.287Z,10.20
2022-09-06T22:57:18.680Z,8.53
2022-09-06T23:00:22.221Z,8.32
2022-09-06T23:03:25.584Z,7.32
2022-09-06T23:06:28.747Z,9.23
2022-09-06T23:09:31.922Z,9.60
2022-09-06T23:12:35.383Z,7.93
2022-09-06T23:15:46.042Z,8.27
2022-09-06T23:18:49.815Z,8.25
2022-09-06T23:21:53.064Z,10.48
2022-09-06T23:24:56.293Z,13.00
2022-09-06T23:28:00.365Z,7.77
2022-09-06T23:31:08.691Z,9.10
2022-09-06T23:34:12.153Z,9.10
2022-09-06T23:37:15.395Z,10.02
2022-09-06T23:40:19.641Z,9.87
2022-09-06T23:43:23.281Z,8.43
2022-09-06T23:46:26.544Z,10.55
2022-09-06T23:49:29.808Z,9.48
2022-09-06T23:52:33.105Z,10.30
2022-09-06T23:55:36.492Z,9.67
2022-09-06T23:58:40.123Z,4.87
